Time;durP1;ratioP1;P1;durP2;ratioP2;P2;SDS_P1;SDS_P2;PMS_P1;PMS_P2;Temp;Humidity;BMP_temperature;BMP_pressure;BME280_temperature;BME280_humidity;BME280_pressure;Samples;Min_cycle;Max_cycle;Signal;HPM_P1;HPM_P2
2022/09/28 00:00:51;;;;;;;;;;;;;;;7.19;51.87;93567.28;5047958;28;19980;-80
2022/09/28 00:03:16;;;;;;;;;;;;;;;7.08;51.55;93567.91;5045697;28;20012;-79
2022/09/28 00:05:41;;;;;;;;;;;;;;;7.06;52.00;93561.97;5061587;28;19976;-79
2022/09/28 00:08:06;;;;;;;;;;;;;;;6.99;50.60;93556.72;5074969;28;20024;-79
2022/09/28 00:10:32;;;;;;;;;;;;;;;7.10;51.98;93549.97;5075679;28;19965;-79
2022/09/28 00:12:59;;;;;;;;;;;;;;;6.88;52.37;93550.22;5077747;28;20672;-80
2022/09/28 00:15:24;;;;;;;;;;;;;;;7.10;52.25;93542.84;5062315;28;20613;-79
2022/09/28 00:17:49;;;;;;;;;;;;;;;6.91;50.17;93544.53;5077242;28;19989;-79
2022/09/28 00:20:16;;;;;;;;;;;;;;;7.25;50.05;93542.59;5058582;28;19993;-80
2022/09/28 00:22:42;;;;;;;;;;;;;;;7.04;51.34;93543.66;5069817;28;19997;-79
2022/09/28 00:25:07;;;;;;;;;;;;;;;6.79;51.53;93536.38;5076756;28;20419;-79
2022/09/28 00:27:32;;;;;;;;;;;;;;;6.46;51.68;93532.72;5066554;28;19985;-80
2022/09/28 00:29:58;;;;;;;;;;;;;;;6.59;52.26;93523.19;5066833;28;20016;-80
2022/09/28 00:32:23;;;;;;;;;;;;;;;7.00;50.77;93519.47;5049772;28;19996;-80
2022/09/28 00:34:49;;;;;;;;;;;;;;;6.93;50.68;93528.44;5047365;28;20080;-80
2022/09/28 00:37:14;;;;;;;;;;;;;;;6.82;50.92;93537.81;5047644;28;19973;-80
2022/09/28 00:39:43;;;;;;;;;;;;;;;6.82;50.77;93532.53;5069450;28;20087;-80
2022/09/28 00:42:28;;;;;;;;;;;;;;;6.60;51.70;93522.19;5052896;28;20208;-79
2022/09/28 00:44:57;;;;;;;;;;;;;;;6.41;52.54;93521.94;5063612;28;20295;-80
2022/09/28 00:47:22;;;;;;;;;;;;;;;6.70;51.79;93511.97;5065209;28;20035;-79
2022/09/28 00:49:48;;;;;;;;;;;;;;;6.66;51.34;93518.69;5064389;28;19969;-80
2022/09/28 00:52:15;;;;;;;;;;;;;;;6.60;51.91;93516.91;5030908;28;19989;-80
2022/09/28 00:54:40;;;;;;;;;;;;;;;6.29;52.75;93513.81;5029273;28;20011;-79
2022/09/28 00:57:06;;;;;;;;;;;;;;;6.61;52.22;93518.50;5032426;28;19969;-80
2022/09/28 00:59:31;;;;;;;;;;;;;;;6.71;51.55;93508.34;5057354;28;20554;-80
2022/09/28 01:01:56;;;;;;;;;;;;;;;6.49;52.41;93497.97;5027499;28;20699;-80
2022/09/28 01:04:21;;;;;;;;;;;;;;;6.77;51.98;93502.22;5040523;28;20000;-80
2022/09/28 01:06:47;;;;;;;;;;;;;;;6.55;52.95;93490.22;5035032;28;19988;-79
2022/09/28 01:09:12;;;;;;;;;;;;;;;6.70;51.45;93484.75;5049092;28;20867;-79
2022/09/28 01:11:37;;;;;;;;;;;;;;;6.91;52.35;93488.97;5032281;28;20372;-79
2022/09/28 01:14:03;;;;;;;;;;;;;;;6.65;51.81;93490.66;5057728;28;19980;-80
2022/09/28 01:16:37;;;;;;;;;;;;;;;6.73;52.26;93486.94;5035263;28;19989;-79
2022/09/28 01:19:21;;;;;;;;;;;;;;;6.37;52.85;93489.81;5041091;28;20008;-79
2022/09/28 01:22:00;;;;;;;;;;;;;;;6.36;53.74;93484.75;5056118;28;19974;-79
2022/09/28 01:24:31;;;;;;;;;;;;;;;6.19;54.05;93490.41;5024069;28;19996;-79
2022/09/28 01:26:59;;;;;;;;;;;;;;;6.22;54.22;93489.19;5052101;28;19985;-80
2022/09/28 01:29:40;;;;;;;;;;;;;;;6.13;54.17;93475.41;5039215;28;20012;-80
2022/09/28 01:32:09;;;;;;;;;;;;;;;6.02;54.80;93481.28;5043274;28;19988;-79
2022/09/28 01:34:55;;;;;;;;;;;;;;;5.51;56.27;93488.69;5040734;28;20026;-79
2022/09/28 01:37:21;;;;;;;;;;;;;;;5.18;57.31;93482.28;5041270;28;20003;-79
2022/09/28 01:39:47;;;;;;;;;;;;;;;4.96;57.96;93482.34;5038309;28;20005;-79
2022/09/28 01:42:20;;;;;;;;;;;;;;;4.14;60.50;93488.91;5043673;28;20027;-79
2022/09/28 01:44:46;;;;;;;;;;;;;;;4.10;61.00;93487.69;5035683;28;20018;-79
2022/09/28 01:47:11;;;;;;;;;;;;;;;4.03;61.08;93498.16;5039587;28;19992;-79
2022/09/28 01:49:45;;;;;;;;;;;;;;;3.36;62.21;93500.91;5045353;28;20465;-79
2022/09/28 01:52:12;;;;;;;;;;;;;;;2.49;65.12;93495.34;5033400;28;20535;-79
2022/09/28 01:54:42;;;;;;;;;;;;;;;2.69;65.45;93489.56;5055863;28;19995;-79
2022/09/28 01:57:21;;;;;;;;;;;;;;;2.28;66.33;93488.94;5057739;28;19973;-79
2022/09/28 01:59:49;;;;;;;;;;;;;;;2.23;66.35;93491.31;5042548;28;20003;-79
2022/09/28 02:02:17;;;;;;;;;;;;;;;1.85;67.09;93490.31;5021293;28;19980;-79
2022/09/28 02:05:09;;;;;;;;;;;;;;;2.08;66.97;93488.66;5045072;28;20032;-79
2022/09/28 02:07:37;;;;;;;;;;;;;;;2.57;64.76;93481.28;5050077;28;20414;-79
2022/09/28 02:10:04;;;;;;;;;;;;;;;2.23;65.54;93493.94;5038348;28;19968;-78
2022/09/28 02:12:32;;;;;;;;;;;;;;;1.81;66.74;93488.22;5027892;28;20191;-79
2022/09/28 02:14:58;;;;;;;;;;;;;;;2.10;66.71;93473.53;5063711;28;19989;-79
2022/09/28 02:17:23;;;;;;;;;;;;;;;1.56;67.85;93489.19;5071798;28;20012;-80
2022/09/28 02:19:49;;;;;;;;;;;;;;;1.46;69.26;93478.91;5037684;28;20035;-79
2022/09/28 02:22:26;;;;;;;;;;;;;;;1.39;68.94;93483.19;5060757;28;20053;-77
2022/09/28 02:24:55;;;;;;;;;;;;;;;1.62;68.83;93472.78;5058259;28;20090;-78
2022/09/28 02:27:34;;;;;;;;;;;;;;;2.19;66.31;93467.22;5040730;28;20256;-78
2022/09/28 02:29:59;;;;;;;;;;;;;;;2.20;66.52;93460.97;5059427;28;20265;-78
2022/09/28 02:32:24;;;;;;;;;;;;;;;2.58;65.22;93465.34;5030885;28;20401;-79
2022/09/28 02:34:50;;;;;;;;;;;;;;;2.80;64.33;93462.81;5047753;28;20058;-79
2022/09/28 02:37:15;;;;;;;;;;;;;;;2.84;63.91;93458.81;5048749;28;20435;-79
2022/09/28 02:39:40;;;;;;;;;;;;;;;3.05;64.18;93449.34;5058079;28;20246;-80
2022/09/28 02:42:16;;;;;;;;;;;;;;;2.43;64.92;93461.91;5077205;28;19975;-80
2022/09/28 02:44:50;;;;;;;;;;;;;;;3.04;64.17;93460.88;5082360;28;20059;-80
2022/09/28 02:47:18;;;;;;;;;;;;;;;3.20;62.68;93475.63;5073304;28;20016;-80
2022/09/28 02:49:49;;;;;;;;;;;;;;;2.21;66.22;93480.19;5056148;28;19968;-80
2022/09/28 02:52:19;;;;;;;;;;;;;;;1.83;68.04;93475.72;5063437;28;20000;-79
2022/09/28 02:55:03;;;;;;;;;;;;;;;2.00;67.94;93479.03;5057177;28;19996;-80
2022/09/28 02:57:38;;;;;;;;;;;;;;;1.84;68.06;93483.41;5073297;28;20214;-79
2022/09/28 03:00:06;;;;;;;;;;;;;;;1.22;70.46;93495.59;5053033;28;20236;-79
2022/09/28 03:02:44;;;;;;;;;;;;;;;1.08;70.90;93482.22;5069640;28;19969;-78
2022/09/28 03:05:11;;;;;;;;;;;;;;;1.17;71.06;93483.00;5072571;28;19969;-79
2022/09/28 03:07:42;;;;;;;;;;;;;;;1.71;69.40;93481.38;5054976;28;19984;-78
2022/09/28 03:10:15;;;;;;;;;;;;;;;1.44;68.96;93485.31;5045726;28;19980;-78
2022/09/28 03:12:41;;;;;;;;;;;;;;;1.69;68.30;93482.53;5053165;28;20019;-79
2022/09/28 03:15:07;;;;;;;;;;;;;;;1.79;68.54;93477.06;5052341;28;20032;-79
2022/09/28 03:17:32;;;;;;;;;;;;;;;1.68;68.54;93484.38;5082475;28;19977;-79
2022/09/28 03:19:57;;;;;;;;;;;;;;;1.07;69.74;93482.41;5031377;28;20020;-78
2022/09/28 03:22:22;;;;;;;;;;;;;;;1.42;68.73;93488.09;5039952;28;20000;-79
2022/09/28 03:24:47;;;;;;;;;;;;;;;1.36;70.19;93483.53;5063585;28;19968;-79
2022/09/28 03:27:13;;;;;;;;;;;;;;;1.68;69.11;93487.00;5072432;28;20237;-79
2022/09/28 03:29:39;;;;;;;;;;;;;;;1.96;67.89;93483.81;5071642;28;19971;-79
2022/09/28 03:32:04;;;;;;;;;;;;;;;1.62;68.39;93483.25;5071659;28;19989;-78
2022/09/28 03:34:30;;;;;;;;;;;;;;;1.66;68.16;93477.69;5064956;28;19976;-79
2022/09/28 03:36:55;;;;;;;;;;;;;;;1.96;68.00;93481.19;5075306;28;20426;-80
2022/09/28 03:39:20;;;;;;;;;;;;;;;2.14;66.27;93474.81;5082095;28;20240;-80
2022/09/28 03:41:45;;;;;;;;;;;;;;;2.36;66.28;93478.41;5074783;28;19973;-80
2022/09/28 03:44:10;;;;;;;;;;;;;;;2.32;65.77;93482.38;5055539;28;20031;-79
2022/09/28 03:46:36;;;;;;;;;;;;;;;2.10;67.07;93482.22;5083336;28;19991;-79
2022/09/28 03:49:01;;;;;;;;;;;;;;;1.80;67.57;93479.50;5059392;28;19987;-79
2022/09/28 03:51:26;;;;;;;;;;;;;;;1.39;69.28;93492.91;5073155;28;20070;-79
2022/09/28 03:53:52;;;;;;;;;;;;;;;1.78;67.93;93476.25;5077162;28;20056;-78
2022/09/28 03:56:17;;;;;;;;;;;;;;;1.22;69.99;93480.69;5069985;28;19993;-80
2022/09/28 03:58:42;;;;;;;;;;;;;;;1.17;70.44;93475.16;5045795;28;19983;-78
2022/09/28 04:01:11;;;;;;;;;;;;;;;1.58;68.32;93473.28;5056159;28;19969;-80
2022/09/28 04:03:36;;;;;;;;;;;;;;;1.91;67.52;93464.34;5043358;28;20063;-79
2022/09/28 04:06:01;;;;;;;;;;;;;;;2.29;65.92;93466.13;5049312;28;20048;-77
2022/09/28 04:08:26;;;;;;;;;;;;;;;2.39;65.51;93461.47;5057417;28;19989;-78
2022/09/28 04:10:54;;;;;;;;;;;;;;;1.98;67.28;93470.53;5054448;28;19989;-79
2022/09/28 04:13:20;;;;;;;;;;;;;;;1.90;67.81;93474.03;5038795;28;20064;-80
2022/09/28 04:15:50;;;;;;;;;;;;;;;1.86;68.08;93478.00;5073311;28;19981;-79
2022/09/28 04:18:16;;;;;;;;;;;;;;;1.91;67.47;93456.47;5056504;28;20158;-79
2022/09/28 04:20:44;;;;;;;;;;;;;;;2.07;66.83;93464.19;5057491;28;20009;-80
2022/09/28 04:23:09;;;;;;;;;;;;;;;2.30;66.48;93458.09;5081927;28;20052;-80
2022/09/28 04:25:34;;;;;;;;;;;;;;;1.77;68.36;93477.25;5066163;28;19968;-80
2022/09/28 04:30:45;;;;;;;;;;;;;;;1.77;68.07;93479.84;5074947;28;20052;-79
2022/09/28 04:33:10;;;;;;;;;;;;;;;1.70;69.02;93468.47;5067096;28;19967;-78
2022/09/28 04:35:35;;;;;;;;;;;;;;;1.15;70.54;93476.28;5041086;28;20339;-76
2022/09/28 04:38:01;;;;;;;;;;;;;;;1.41;69.62;93475.16;5052553;28;20476;-79
2022/09/28 04:40:26;;;;;;;;;;;;;;;1.17;69.99;93484.81;5057053;28;20001;-77
2022/09/28 04:42:52;;;;;;;;;;;;;;;1.74;68.09;93475.00;5035673;28;19989;-76
2022/09/28 04:45:17;;;;;;;;;;;;;;;1.30;69.54;93481.63;5043819;28;19965;-76
2022/09/28 04:47:42;;;;;;;;;;;;;;;1.61;69.03;93471.13;5059103;28;20015;-76
2022/09/28 04:50:07;;;;;;;;;;;;;;;1.87;66.94;93469.13;5055348;28;20060;-77
2022/09/28 04:52:34;;;;;;;;;;;;;;;1.20;69.45;93474.00;5056311;28;19989;-77
2022/09/28 04:54:59;;;;;;;;;;;;;;;1.54;68.98;93475.47;5038256;28;19996;-78
2022/09/28 04:57:25;;;;;;;;;;;;;;;1.71;68.47;93472.72;5060869;28;19973;-78
2022/09/28 04:59:50;;;;;;;;;;;;;;;2.10;67.31;93476.16;5038945;28;20004;-78
2022/09/28 05:02:16;;;;;;;;;;;;;;;1.78;68.29;93483.31;5052637;28;20015;-78
2022/09/28 05:04:41;;;;;;;;;;;;;;;2.20;67.78;93478.53;5054158;28;20508;-79
2022/09/28 05:07:06;;;;;;;;;;;;;;;2.36;67.35;93482.81;5056290;28;20032;-79
2022/09/28 05:09:31;;;;;;;;;;;;;;;2.11;67.95;93478.59;5065617;28;20460;-78
2022/09/28 05:11:57;;;;;;;;;;;;;;;2.43;67.34;93491.63;5061904;28;19997;-78
2022/09/28 05:14:23;;;;;;;;;;;;;;;2.67;65.93;93481.03;5065748;28;20016;-78
2022/09/28 05:16:48;;;;;;;;;;;;;;;2.73;64.54;93485.56;5065263;28;20052;-78
2022/09/28 05:19:13;;;;;;;;;;;;;;;2.24;66.89;93501.63;5065964;28;20032;-79
2022/09/28 05:21:39;;;;;;;;;;;;;;;0.82;69.00;93522.63;5042952;28;20015;-76
2022/09/28 05:24:06;;;;;;;;;;;;;;;0.93;69.15;93516.22;5043692;28;19989;-75
2022/09/28 05:26:31;;;;;;;;;;;;;;;1.09;69.42;93499.59;5049159;28;20074;-75
2022/09/28 05:28:57;;;;;;;;;;;;;;;1.17;69.71;93497.91;5054147;28;20047;-77
2022/09/28 05:31:22;;;;;;;;;;;;;;;1.31;68.74;93507.69;5059703;28;19989;-75
2022/09/28 05:33:48;;;;;;;;;;;;;;;1.23;69.78;93499.88;5065002;28;20012;-76
2022/09/28 05:36:13;;;;;;;;;;;;;;;1.31;69.58;93491.94;5056942;28;19993;-76
2022/09/28 05:38:38;;;;;;;;;;;;;;;1.65;67.73;93507.50;5057236;28;20334;-77
2022/09/28 05:41:03;;;;;;;;;;;;;;;1.67;67.75;93502.91;5057526;28;19995;-77
2022/09/28 05:43:29;;;;;;;;;;;;;;;1.52;67.95;93501.00;5068784;28;19992;-77
2022/09/28 05:45:54;;;;;;;;;;;;;;;1.27;69.35;93509.00;5061763;28;20000;-77
2022/09/28 05:48:19;;;;;;;;;;;;;;;1.71;68.60;93506.81;5046955;28;20107;-79
2022/09/28 05:50:48;;;;;;;;;;;;;;;1.51;68.39;93504.63;5070577;28;19984;-78
2022/09/28 05:53:14;;;;;;;;;;;;;;;1.42;69.60;93503.00;5058847;28;19992;-78
2022/09/28 05:55:39;;;;;;;;;;;;;;;1.67;68.00;93505.53;5071177;28;19986;-79
2022/09/28 05:58:04;;;;;;;;;;;;;;;1.86;67.93;93499.00;5077139;28;20018;-78
2022/09/28 06:00:30;;;;;;;;;;;;;;;1.07;70.38;93512.06;5068158;28;19993;-77
2022/09/28 06:02:59;;;;;;;;;;;;;;;0.70;71.96;93524.81;5060986;28;20038;-76
2022/09/28 06:05:24;;;;;;;;;;;;;;;0.94;71.91;93512.59;5049679;28;20075;-78
2022/09/28 06:07:50;;;;;;;;;;;;;;;0.97;72.18;93503.56;5061152;28;20028;-77
2022/09/28 06:10:15;;;;;;;;;;;;;;;0.94;72.04;93514.38;5058851;28;20012;-75
2022/09/28 06:12:41;;;;;;;;;;;;;;;1.34;70.48;93515.22;5063824;28;19989;-77
2022/09/28 06:15:06;;;;;;;;;;;;;;;0.92;71.58;93516.38;5058588;28;20028;-65
2022/09/28 06:17:31;;;;;;;;;;;;;;;1.10;71.04;93516.13;5056686;28;20465;-65
2022/09/28 06:19:57;;;;;;;;;;;;;;;0.81;72.35;93521.00;5048261;28;20444;-66
2022/09/28 06:22:22;;;;;;;;;;;;;;;0.86;71.68;93520.50;5053205;28;20011;-65
2022/09/28 06:24:48;;;;;;;;;;;;;;;0.66;73.31;93520.06;5050915;28;20454;-65
2022/09/28 06:27:13;;;;;;;;;;;;;;;0.72;72.40;93524.63;5056619;28;19993;-65
2022/09/28 06:29:38;;;;;;;;;;;;;;;1.21;71.05;93522.81;5049026;28;19973;-66
2022/09/28 06:32:03;;;;;;;;;;;;;;;0.71;72.65;93522.97;5057680;28;20042;-65
2022/09/28 06:34:29;;;;;;;;;;;;;;;0.85;72.90;93524.06;5059743;28;19972;-65
2022/09/28 06:36:54;;;;;;;;;;;;;;;1.10;71.82;93532.66;5056814;28;20608;-55
2022/09/28 06:39:19;;;;;;;;;;;;;;;0.75;73.06;93540.00;5052631;28;20001;-55
2022/09/28 06:41:44;;;;;;;;;;;;;;;0.56;74.45;93533.34;5049512;28;20072;-55
2022/09/28 06:44:10;;;;;;;;;;;;;;;1.14;71.50;93537.56;5056705;28;20054;-55
2022/09/28 06:46:37;;;;;;;;;;;;;;;0.64;73.37;93533.31;5057201;28;19969;-56
2022/09/28 06:49:03;;;;;;;;;;;;;;;1.08;72.02;93536.44;5052740;28;19996;-55
2022/09/28 06:51:28;;;;;;;;;;;;;;;1.46;71.30;93538.41;5050995;28;19984;-56
2022/09/28 06:53:55;;;;;;;;;;;;;;;1.13;72.05;93536.78;5054413;28;19980;-56
2022/09/28 06:56:20;;;;;;;;;;;;;;;0.97;72.89;93535.84;5058455;28;20015;-55
2022/09/28 06:58:46;;;;;;;;;;;;;;;1.06;72.91;93541.06;5058520;28;19991;-57
2022/09/28 07:01:11;;;;;;;;;;;;;;;0.64;73.60;93545.59;5053705;28;19981;-57
2022/09/28 07:03:36;;;;;;;;;;;;;;;0.52;74.76;93540.72;5051196;28;19996;-62
2022/09/28 07:06:03;;;;;;;;;;;;;;;0.91;74.13;93543.53;5051411;28;20632;-55
2022/09/28 07:08:28;;;;;;;;;;;;;;;1.09;73.77;93543.34;5051855;28;19985;-55
2022/09/28 07:10:57;;;;;;;;;;;;;;;1.05;73.48;93544.66;5052872;28;20075;-56
2022/09/28 07:13:23;;;;;;;;;;;;;;;0.92;74.29;93545.22;5055680;28;20026;-57
2022/09/28 07:15:52;;;;;;;;;;;;;;;0.51;74.92;93544.31;5051549;28;19993;-55
2022/09/28 07:18:17;;;;;;;;;;;;;;;0.72;75.23;93554.25;5054702;28;20051;-55
2022/09/28 07:20:42;;;;;;;;;;;;;;;0.88;74.00;93557.00;5057433;28;20534;-55
2022/09/28 07:23:08;;;;;;;;;;;;;;;0.53;75.38;93560.69;5055223;28;20403;-55
2022/09/28 07:25:35;;;;;;;;;;;;;;;0.96;74.50;93562.22;5055590;28;20272;-55
2022/09/28 07:28:01;;;;;;;;;;;;;;;0.79;74.84;93567.47;5048943;28;19989;-55
2022/09/28 07:30:27;;;;;;;;;;;;;;;0.62;75.58;93571.13;5049693;28;20507;-55
2022/09/28 07:32:52;;;;;;;;;;;;;;;0.71;74.77;93573.56;5053213;28;19965;-56
2022/09/28 07:35:18;;;;;;;;;;;;;;;0.90;74.88;93570.75;5056730;28;20346;-56
2022/09/28 07:37:43;;;;;;;;;;;;;;;0.71;75.53;93575.38;5056038;28;20364;-56
2022/09/28 07:42:52;;;;;;;;;;;;;;;0.57;75.20;93596.03;5051975;28;19995;-56
2022/09/28 07:45:23;;;;;;;;;;;;;;;0.41;76.11;93581.13;5051645;28;19969;-55
2022/09/28 07:47:49;;;;;;;;;;;;;;;1.17;73.70;93589.66;5032462;28;20004;-56
2022/09/28 07:50:15;;;;;;;;;;;;;;;1.03;75.20;93596.44;5048898;28;20092;-55
2022/09/28 07:52:41;;;;;;;;;;;;;;;0.68;75.91;93609.78;5052250;28;20075;-55
2022/09/28 07:55:06;;;;;;;;;;;;;;;1.34;73.48;93601.75;5047588;28;19993;-56
2022/09/28 07:57:35;;;;;;;;;;;;;;;0.91;73.93;93616.91;5049324;28;19976;-55
2022/09/28 08:00:01;;;;;;;;;;;;;;;1.19;73.06;93612.09;5050863;28;20078;-56
2022/09/28 08:02:26;;;;;;;;;;;;;;;1.70;71.64;93608.31;5052666;28;19966;-56
2022/09/28 08:04:52;;;;;;;;;;;;;;;1.87;71.16;93603.78;5050735;28;19972;-57
2022/09/28 08:07:17;;;;;;;;;;;;;;;2.08;70.39;93618.09;5051632;28;20040;-57
2022/09/28 08:10:04;;;;;;;;;;;;;;;1.32;71.82;93623.84;5052286;28;20201;-57
2022/09/28 08:12:29;;;;;;;;;;;;;;;1.06;73.14;93623.09;5049639;28;19989;-63
2022/09/28 08:14:54;;;;;;;;;;;;;;;0.95;73.69;93615.59;5048825;28;20012;-56
2022/09/28 08:17:20;;;;;;;;;;;;;;;1.07;73.04;93616.06;5047946;28;19996;-64
2022/09/28 08:22:31;;;;;;;;;;;;;;;0.85;74.59;93641.97;5047111;28;20023;-65
2022/09/28 08:24:56;;;;;;;;;;;;;;;0.75;74.96;93649.22;5049878;28;19969;-65
2022/09/28 08:27:21;;;;;;;;;;;;;;;0.95;74.78;93641.81;5051404;28;19984;-65
2022/09/28 08:29:46;;;;;;;;;;;;;;;0.68;75.12;93642.00;5050294;28;20289;-66
2022/09/28 08:32:12;;;;;;;;;;;;;;;1.05;74.11;93645.06;5051199;28;19985;-70
2022/09/28 08:34:37;;;;;;;;;;;;;;;1.03;74.03;93649.66;5049536;28;20063;-67
2022/09/28 08:37:03;;;;;;;;;;;;;;;1.15;74.46;93652.75;5048077;28;19996;-67
2022/09/28 08:39:28;;;;;;;;;;;;;;;1.75;72.19;93655.03;5051961;28;20040;-67
2022/09/28 08:41:54;;;;;;;;;;;;;;;1.73;72.16;93657.81;5053528;28;20415;-64
2022/09/28 08:44:23;;;;;;;;;;;;;;;1.81;71.16;93662.19;5053222;28;19988;-65
2022/09/28 08:46:49;;;;;;;;;;;;;;;1.45;72.13;93660.84;5048340;28;20721;-65
2022/09/28 08:49:18;;;;;;;;;;;;;;;1.87;71.69;93664.16;5051526;28;19997;-66
2022/09/28 08:51:49;;;;;;;;;;;;;;;1.70;71.88;93665.22;5047816;28;20498;-66
2022/09/28 08:54:20;;;;;;;;;;;;;;;1.69;72.08;93674.91;5030189;28;20075;-66
2022/09/28 08:56:49;;;;;;;;;;;;;;;2.24;70.68;93674.13;5045005;28;19989;-67
2022/09/28 08:59:24;;;;;;;;;;;;;;;1.54;72.44;93676.59;5035014;28;20424;-67
2022/09/28 09:01:57;;;;;;;;;;;;;;;1.53;72.79;93673.16;5048351;28;20066;-68
2022/09/28 09:04:22;;;;;;;;;;;;;;;1.77;72.44;93681.91;5034195;28;20476;-65
2022/09/28 09:06:51;;;;;;;;;;;;;;;1.58;72.34;93681.34;5030442;28;20028;-65
2022/09/28 09:09:30;;;;;;;;;;;;;;;1.45;73.85;93691.50;5030711;28;19969;-66
2022/09/28 09:11:57;;;;;;;;;;;;;;;1.34;74.26;93684.81;5032819;28;19989;-64
2022/09/28 09:14:37;;;;;;;;;;;;;;;1.73;72.59;93699.81;5050991;28;20004;-67
2022/09/28 09:17:12;;;;;;;;;;;;;;;1.84;72.03;93701.22;5047618;28;20338;-67
2022/09/28 09:19:45;;;;;;;;;;;;;;;1.41;73.81;93698.06;5056808;28;20098;-67
2022/09/28 09:22:13;;;;;;;;;;;;;;;1.83;73.52;93704.03;5030778;28;19972;-67
2022/09/28 09:24:42;;;;;;;;;;;;;;;1.95;72.67;93696.59;5057452;28;19985;-67
2022/09/28 09:27:13;;;;;;;;;;;;;;;2.62;71.77;93700.47;5055490;28;19989;-67
2022/09/28 09:29:41;;;;;;;;;;;;;;;2.33;70.25;93701.97;5049662;28;20015;-67
2022/09/28 09:32:21;;;;;;;;;;;;;;;2.29;70.68;93705.94;5048575;28;20004;-66
2022/09/28 09:35:05;;;;;;;;;;;;;;;1.90;70.79;93712.06;5049926;28;20477;-66
2022/09/28 09:37:34;;;;;;;;;;;;;;;2.34;70.50;93706.22;5048156;28;20413;-63
2022/09/28 09:40:06;;;;;;;;;;;;;;;2.51;69.90;93706.94;5029258;28;20001;-63
2022/09/28 09:42:36;;;;;;;;;;;;;;;2.39;69.28;93709.16;5054846;28;20372;-63
2022/09/28 09:45:08;;;;;;;;;;;;;;;2.10;70.76;93712.44;5052477;28;19965;-65
2022/09/28 09:48:02;;;;;;;;;;;;;;;2.58;70.33;93712.31;5049570;28;20280;-63
2022/09/28 09:50:39;;;;;;;;;;;;;;;2.15;70.90;93723.25;5033138;28;19965;-64
2022/09/28 09:53:23;;;;;;;;;;;;;;;2.16;70.24;93724.06;5048199;28;20001;-64
2022/09/28 09:55:50;;;;;;;;;;;;;;;2.39;68.28;93714.41;5041762;28;19992;-63
2022/09/28 09:58:20;;;;;;;;;;;;;;;2.56;69.43;93716.94;5053787;28;19976;-64
2022/09/28 10:00:48;;;;;;;;;;;;;;;2.96;68.76;93719.41;5054430;28;19993;-64
2022/09/28 10:03:16;;;;;;;;;;;;;;;2.38;70.21;93723.28;5033566;28;20388;-65
2022/09/28 10:05:41;;;;;;;;;;;;;;;2.64;68.65;93718.69;5036790;28;20592;-65
2022/09/28 10:08:06;;;;;;;;;;;;;;;2.38;69.92;93733.78;5035636;28;20087;-64
2022/09/28 10:10:32;;;;;;;;;;;;;;;2.57;68.50;93725.63;5048518;28;19973;-65
2022/09/28 10:12:58;;;;;;;;;;;;;;;2.82;69.40;93726.25;5043494;28;20250;-65
2022/09/28 10:15:32;;;;;;;;;;;;;;;3.79;67.07;93723.94;5057190;28;20130;-65
2022/09/28 10:17:59;;;;;;;;;;;;;;;4.07;63.77;93719.81;5035195;28;20356;-64
2022/09/28 10:20:24;;;;;;;;;;;;;;;4.08;62.85;93721.44;5058652;28;20173;-64
2022/09/28 10:22:50;;;;;;;;;;;;;;;4.43;63.19;93723.47;5041505;28;20068;-64
2022/09/28 10:25:15;;;;;;;;;;;;;;;4.82;61.57;93722.22;5056829;28;20046;-64
2022/09/28 10:27:44;;;;;;;;;;;;;;;4.29;62.45;93736.47;5036153;28;19992;-63
2022/09/28 10:30:09;;;;;;;;;;;;;;;4.44;61.40;93723.28;5052754;28;20521;-64
2022/09/28 10:32:43;;;;;;;;;;;;;;;4.53;60.92;93729.22;5055725;28;20004;-62
2022/09/28 10:35:17;;;;;;;;;;;;;;;4.85;61.30;93731.56;5059551;28;20095;-62
2022/09/28 10:38:05;;;;;;;;;;;;;;;4.75;61.24;93723.16;5053338;28;19971;-62
2022/09/28 10:40:46;;;;;;;;;;;;;;;3.91;62.31;93731.38;5037439;28;20055;-63
2022/09/28 10:43:24;;;;;;;;;;;;;;;4.06;62.43;93737.41;5034062;28;20593;-64
2022/09/28 10:46:09;;;;;;;;;;;;;;;4.27;62.75;93741.13;5051227;28;19980;-65
2022/09/28 10:48:51;;;;;;;;;;;;;;;3.43;65.58;93743.81;5054070;28;19985;-64
2022/09/28 10:51:16;;;;;;;;;;;;;;;3.31;66.23;93753.16;5037115;28;20491;-64
2022/09/28 10:53:41;;;;;;;;;;;;;;;3.31;66.65;93758.41;5034097;28;20071;-63
2022/09/28 10:56:17;;;;;;;;;;;;;;;3.60;66.34;93748.94;5054822;28;19985;-62
2022/09/28 10:58:43;;;;;;;;;;;;;;;3.72;66.15;93749.34;5050804;28;19975;-65
2022/09/28 11:01:31;;;;;;;;;;;;;;;4.14;65.71;93746.22;5022027;28;19972;-65
2022/09/28 11:03:58;;;;;;;;;;;;;;;4.30;65.26;93756.56;5039789;28;19989;-65
2022/09/28 11:06:24;;;;;;;;;;;;;;;4.38;63.66;93757.44;5048060;28;19976;-63
2022/09/28 11:08:50;;;;;;;;;;;;;;;5.18;61.17;93752.22;5057432;28;20126;-65
2022/09/28 11:11:15;;;;;;;;;;;;;;;4.88;62.67;93748.84;5051465;28;20079;-62
2022/09/28 11:13:46;;;;;;;;;;;;;;;5.00;63.13;93757.06;5063820;28;19981;-80
2022/09/28 11:16:41;;;;;;;;;;;;;;;5.17;61.03;93760.31;5071836;28;20011;-79
2022/09/28 11:19:19;;;;;;;;;;;;;;;4.42;62.15;93762.16;5061988;28;20391;-80
2022/09/28 11:21:45;;;;;;;;;;;;;;;4.76;62.65;93764.34;5084106;28;19960;-80
2022/09/28 11:24:13;;;;;;;;;;;;;;;4.16;64.93;93765.28;5068729;28;19997;-79
2022/09/28 11:26:40;;;;;;;;;;;;;;;4.78;62.99;93773.72;5068041;28;19992;-80
2022/09/28 11:29:06;;;;;;;;;;;;;;;5.29;61.84;93771.16;5063043;28;20041;-80
2022/09/28 11:31:33;;;;;;;;;;;;;;;5.47;62.94;93754.84;5085960;28;19981;-80
2022/09/28 11:34:15;;;;;;;;;;;;;;;4.97;59.37;93766.97;5065112;28;19965;-80
2022/09/28 11:36:43;;;;;;;;;;;;;;;4.81;60.70;93765.44;5057850;28;19988;-80
2022/09/28 11:39:21;;;;;;;;;;;;;;;4.48;60.65;93762.41;5067726;28;19997;-80
2022/09/28 11:41:49;;;;;;;;;;;;;;;5.04;61.30;93768.88;5078826;28;20417;-81
2022/09/28 11:44:17;;;;;;;;;;;;;;;5.55;57.89;93759.19;5051467;28;19995;-81
2022/09/28 11:46:47;;;;;;;;;;;;;;;5.53;57.51;93764.66;5055730;28;20018;-79
2022/09/28 11:49:19;;;;;;;;;;;;;;;5.42;57.79;93767.81;5017323;28;19968;-79
2022/09/28 11:51:44;;;;;;;;;;;;;;;5.62;58.76;93762.69;5052189;28;19984;-81
2022/09/28 11:54:13;;;;;;;;;;;;;;;5.41;59.07;93766.19;5031098;28;19972;-79
2022/09/28 11:56:45;;;;;;;;;;;;;;;5.79;58.05;93757.09;5030073;28;20407;-79
2022/09/28 11:59:13;;;;;;;;;;;;;;;5.79;57.65;93762.38;5049202;28;19996;-79
2022/09/28 12:01:46;;;;;;;;;;;;;;;5.92;57.62;93761.66;5057110;28;20042;-79
2022/09/28 12:04:13;;;;;;;;;;;;;;;6.06;56.95;93765.97;5036897;28;19996;-80
2022/09/28 12:06:39;;;;;;;;;;;;;;;6.20;55.45;93763.41;5026898;28;19961;-81
2022/09/28 12:09:23;;;;;;;;;;;;;;;6.44;56.35;93758.63;5033294;28;19965;-79
2022/09/28 12:11:51;;;;;;;;;;;;;;;6.10;56.87;93763.78;5051927;28;20024;-77
2022/09/28 12:14:20;;;;;;;;;;;;;;;6.95;55.29;93765.31;5039939;28;19983;-77
2022/09/28 12:16:48;;;;;;;;;;;;;;;7.43;52.58;93763.53;5032208;28;20335;-80
2022/09/28 12:19:21;;;;;;;;;;;;;;;7.18;53.92;93773.91;5034657;28;20075;-78
2022/09/28 12:21:54;;;;;;;;;;;;;;;7.64;54.44;93766.97;5034881;28;20012;-78
2022/09/28 12:24:22;;;;;;;;;;;;;;;7.09;54.55;93765.34;5027718;28;19989;-78
2022/09/28 12:26:52;;;;;;;;;;;;;;;6.84;54.67;93765.91;5041436;28;19997;-79
2022/09/28 12:29:19;;;;;;;;;;;;;;;6.77;54.58;93764.06;5032663;28;20418;-79
2022/09/28 12:31:44;;;;;;;;;;;;;;;6.97;54.28;93765.13;5027829;28;20015;-77
2022/09/28 12:34:09;;;;;;;;;;;;;;;6.94;53.89;93768.16;5053598;28;19973;-78
2022/09/28 12:36:53;;;;;;;;;;;;;;;7.05;54.03;93758.81;5035111;28;19997;-79
2022/09/28 12:39:18;;;;;;;;;;;;;;;6.70;55.60;93762.41;5049143;28;19997;-78
2022/09/28 12:41:49;;;;;;;;;;;;;;;7.32;54.17;93767.63;5044788;28;19965;-77
2022/09/28 12:44:35;;;;;;;;;;;;;;;6.60;55.67;93768.09;5047884;28;19989;-78
2022/09/28 12:47:19;;;;;;;;;;;;;;;6.85;55.13;93762.25;5052105;28;19997;-79
2022/09/28 12:50:02;;;;;;;;;;;;;;;7.05;54.15;93766.75;5050330;28;19969;-78
2022/09/28 12:52:33;;;;;;;;;;;;;;;7.78;52.85;93762.50;5033408;28;20361;-79
2022/09/28 12:55:11;;;;;;;;;;;;;;;7.76;51.26;93765.34;5035383;28;20515;-78
2022/09/28 12:57:47;;;;;;;;;;;;;;;8.02;50.77;93758.41;5048197;28;19968;-78
2022/09/28 13:00:17;;;;;;;;;;;;;;;7.62;50.71;93769.03;5032001;28;19997;-81
2022/09/28 13:02:45;;;;;;;;;;;;;;;7.38;51.29;93768.63;5038051;28;20974;-81
2022/09/28 13:05:22;;;;;;;;;;;;;;;6.97;52.33;93779.16;5059360;28;19976;-81
2022/09/28 13:08:06;;;;;;;;;;;;;;;7.05;53.00;93775.53;5059624;28;19993;-81
2022/09/28 13:10:36;;;;;;;;;;;;;;;7.01;53.80;93777.75;5061399;28;19969;-82
2022/09/28 13:13:01;;;;;;;;;;;;;;;7.17;52.04;93773.06;5034686;28;19965;-81